createdAt,value
2023-03-25T00:02:32.513Z,0.00
2023-03-25T00:05:06.229Z,0.00
2023-03-25T00:07:39.105Z,0.00
2023-03-25T00:10:13.172Z,0.05
2023-03-25T00:12:46.286Z,0.00
2023-03-25T00:15:19.938Z,0.00
2023-03-25T00:17:54.651Z,0.10
2023-03-25T00:20:27.996Z,0.00
2023-03-25T00:23:00.744Z,0.00
2023-03-25T00:25:33.838Z,0.00
2023-03-25T00:28:06.767Z,0.00
2023-03-25T00:30:39.966Z,0.00
2023-03-25T00:33:16.478Z,0.00
2023-03-25T00:35:54.655Z,0.00
2023-03-25T00:38:33.406Z,0.00
2023-03-25T00:41:17.670Z,0.00
2023-03-25T00:43:52.207Z,0.00
2023-03-25T00:46:27.903Z,0.00
2023-03-25T00:49:02.911Z,0.00
2023-03-25T00:51:35.764Z,0.00
2023-03-25T00:54:26.113Z,0.00
2023-03-25T00:56:59.229Z,0.00
2023-03-25T00:59:32.137Z,0.00
2023-03-25T01:02:07.294Z,0.00
2023-03-25T01:04:42.548Z,0.00
2023-03-25T01:07:16.070Z,0.00
2023-03-25T01:09:49.916Z,0.00
2023-03-25T01:12:22.935Z,0.00
2023-03-25T01:14:56.693Z,0.05
2023-03-25T01:17:29.488Z,0.00
2023-03-25T01:20:06.008Z,0.00
2023-03-25T01:22:38.910Z,0.00
2023-03-25T01:25:11.830Z,0.00
2023-03-25T01:27:44.731Z,0.00
2023-03-25T01:30:18.698Z,0.00
2023-03-25T01:32:51.538Z,0.00
2023-03-25T01:35:26.084Z,0.75
2023-03-25T01:37:59.126Z,0.00
2023-03-25T01:40:32.064Z,0.00
2023-03-25T01:43:05.028Z,0.00
2023-03-25T01:45:38.245Z,0.00
2023-03-25T01:48:15.323Z,0.00
2023-03-25T01:50:53.194Z,0.00
2023-03-25T01:53:29.485Z,0.00
2023-03-25T01:56:05.655Z,0.00
2023-03-25T01:58:39.309Z,0.00
2023-03-25T02:01:15.096Z,0.65
2023-03-25T02:03:51.496Z,0.00
2023-03-25T02:06:30.648Z,0.00
2023-03-25T02:09:09.114Z,0.00
2023-03-25T02:11:42.505Z,0.00
2023-03-25T02:14:19.327Z,0.00
2023-03-25T02:17:03.636Z,0.00
2023-03-25T02:20:08.152Z,0.00
2023-03-25T02:23:01.919Z,0.00
2023-03-25T02:25:58.649Z,0.00
2023-03-25T02:28:40.009Z,0.00
2023-03-25T02:31:29.614Z,0.00
2023-03-25T02:34:32.641Z,0.00
2023-03-25T02:40:07.005Z,0.10
2023-03-25T02:42:47.858Z,0.00
2023-03-25T02:45:26.458Z,0.00
2023-03-25T02:48:04.523Z,0.00
2023-03-25T02:50:43.656Z,0.00
2023-03-25T02:53:22.312Z,0.00
2023-03-25T02:56:01.649Z,0.90
2023-03-25T02:58:35.550Z,0.00
2023-03-25T03:01:10.425Z,0.00
2023-03-25T03:03:44.108Z,0.00
2023-03-25T03:06:19.750Z,0.00
2023-03-25T03:09:12.579Z,0.00
2023-03-25T03:11:57.702Z,0.00
2023-03-25T03:14:44.102Z,0.00
2023-03-25T03:17:23.252Z,0.00
2023-03-25T03:19:59.110Z,0.00
2023-03-25T03:22:41.086Z,0.00
2023-03-25T03:25:23.826Z,0.00
2023-03-25T03:28:04.748Z,0.20
2023-03-25T03:30:46.647Z,0.00
2023-03-25T03:33:26.777Z,0.00
2023-03-25T03:36:03.145Z,0.10
2023-03-25T03:38:40.498Z,0.00
2023-03-25T03:41:19.352Z,0.00
2023-03-25T03:43:57.646Z,0.00
2023-03-25T03:46:36.339Z,0.00
2023-03-25T03:49:15.498Z,0.00
2023-03-25T03:52:11.646Z,0.10
2023-03-25T03:54:49.741Z,0.00
2023-03-25T03:57:27.804Z,0.00
2023-03-25T04:00:06.915Z,0.00
2023-03-25T04:02:50.332Z,0.03
2023-03-25T04:05:24.372Z,0.00
2023-03-25T04:08:02.493Z,0.00
2023-03-25T04:10:41.232Z,0.00
2023-03-25T04:13:16.894Z,0.00
2023-03-25T04:15:51.293Z,0.00
2023-03-25T04:18:24.566Z,0.00
2023-03-25T04:20:57.488Z,0.00
2023-03-25T04:23:31.382Z,0.00
2023-03-25T04:26:05.206Z,0.00
2023-03-25T04:28:38.044Z,0.00
2023-03-25T04:31:16.654Z,0.00
2023-03-25T04:33:50.986Z,0.00
2023-03-25T04:36:23.978Z,0.00
2023-03-25T04:38:57.288Z,0.00
2023-03-25T04:41:32.159Z,0.00
2023-03-25T04:44:07.789Z,0.00
2023-03-25T04:46:42.342Z,0.00
2023-03-25T04:49:21.143Z,0.00
2023-03-25T04:51:56.966Z,0.00
2023-03-25T04:54:30.049Z,0.00
2023-03-25T04:57:02.941Z,0.05
2023-03-25T04:59:36.027Z,0.10
2023-03-25T05:02:13.908Z,0.00
2023-03-25T05:04:47.902Z,0.00
2023-03-25T05:07:20.910Z,0.00
2023-03-25T05:09:53.728Z,0.00
2023-03-25T05:12:26.574Z,0.00
2023-03-25T05:14:59.347Z,0.00
2023-03-25T05:17:33.684Z,0.00
2023-03-25T05:20:09.102Z,0.00
2023-03-25T05:22:42.524Z,0.00
2023-03-25T05:25:15.928Z,0.00
2023-03-25T05:27:49.403Z,0.00
2023-03-25T05:30:22.722Z,0.00
2023-03-25T05:33:00.121Z,0.03
2023-03-25T05:35:33.249Z,0.00
2023-03-25T05:38:08.225Z,0.00
2023-03-25T05:40:41.868Z,0.10
2023-03-25T05:43:16.357Z,0.10
2023-03-25T05:45:50.332Z,0.08
2023-03-25T05:48:25.032Z,0.08
2023-03-25T05:50:58.481Z,0.00
2023-03-25T05:53:33.104Z,0.00
2023-03-25T05:56:06.912Z,0.10
2023-03-25T05:58:39.854Z,0.00
2023-03-25T06:01:25.856Z,0.00
2023-03-25T06:04:10.174Z,0.00
2023-03-25T06:06:43.499Z,0.00
2023-03-25T06:09:17.860Z,0.20
2023-03-25T06:11:53.526Z,0.00
2023-03-25T06:14:26.762Z,0.00
2023-03-25T06:16:59.521Z,0.00
2023-03-25T06:19:39.041Z,0.00
2023-03-25T06:22:12.729Z,0.10
2023-03-25T06:24:46.647Z,0.00
2023-03-25T06:27:21.224Z,8.10
2023-03-25T06:29:54.091Z,0.00
2023-03-25T06:32:27.276Z,0.00
2023-03-25T06:35:02.509Z,0.00
2023-03-25T06:37:35.765Z,0.03
2023-03-25T06:40:14.191Z,0.00
2023-03-25T06:42:47.165Z,0.00
2023-03-25T06:45:38.232Z,3.95
2023-03-25T06:48:16.762Z,3.22
2023-03-25T06:50:51.027Z,1.85
2023-03-25T06:53:23.994Z,4.65
2023-03-25T06:55:57.847Z,3.15
2023-03-25T06:58:35.335Z,3.78
2023-03-25T07:01:09.038Z,6.60
2023-03-25T07:03:43.128Z,5.65
2023-03-25T07:06:19.011Z,3.97
2023-03-25T07:08:52.627Z,2.78
2023-03-25T07:11:28.059Z,4.20
2023-03-25T07:14:01.412Z,2.88
2023-03-25T07:16:35.330Z,5.10
2023-03-25T07:19:11.088Z,2.97
2023-03-25T07:21:45.318Z,6.00
2023-03-25T07:24:18.239Z,5.45
2023-03-25T07:26:51.175Z,4.78
2023-03-25T07:29:27.466Z,2.38
2023-03-25T07:32:00.371Z,5.40
2023-03-25T07:34:33.247Z,3.47
2023-03-25T07:37:08.267Z,8.27
2023-03-25T07:39:41.165Z,6.20
2023-03-25T07:42:13.996Z,1.95
2023-03-25T07:45:09.521Z,5.80
2023-03-25T07:47:50.503Z,8.65
2023-03-25T07:50:26.109Z,8.27
2023-03-25T07:53:00.538Z,8.20
2023-03-25T07:55:33.502Z,7.15
2023-03-25T07:58:06.431Z,7.95
2023-03-25T08:00:39.781Z,8.38
2023-03-25T08:03:13.260Z,12.07
2023-03-25T08:05:48.086Z,7.85
2023-03-25T08:08:22.798Z,10.60
2023-03-25T08:10:55.688Z,4.85
2023-03-25T08:13:28.918Z,3.70
2023-03-25T08:16:02.559Z,5.60
2023-03-25T08:18:35.577Z,2.85
2023-03-25T08:21:10.031Z,11.80
2023-03-25T08:23:44.638Z,4.68
2023-03-25T08:26:17.829Z,8.65
2023-03-25T08:28:51.267Z,6.40
2023-03-25T08:31:24.438Z,9.57
2023-03-25T08:33:57.674Z,7.70
2023-03-25T08:36:31.183Z,5.93
2023-03-25T08:39:09.785Z,8.98
2023-03-25T08:41:42.762Z,12.80
2023-03-25T08:44:16.257Z,12.13
2023-03-25T08:46:49.094Z,9.20
2023-03-25T08:49:21.869Z,13.48
2023-03-25T08:51:54.963Z,8.70
2023-03-25T08:54:30.494Z,9.45
2023-03-25T08:57:03.517Z,5.60
2023-03-25T08:59:36.418Z,7.50
2023-03-25T09:02:11.341Z,8.10
2023-03-25T09:04:44.773Z,7.75
2023-03-25T09:07:19.988Z,6.22
2023-03-25T09:09:54.503Z,9.50
2023-03-25T09:12:27.623Z,6.78
2023-03-25T09:15:00.764Z,4.80
2023-03-25T09:17:33.600Z,5.05
2023-03-25T09:20:10.634Z,9.13
2023-03-25T09:22:43.832Z,14.15
2023-03-25T09:25:18.055Z,7.28
2023-03-25T09:27:51.259Z,6.80
2023-03-25T09:30:24.353Z,5.20
2023-03-25T09:32:57.386Z,7.72
2023-03-25T09:35:30.435Z,3.35
2023-03-25T09:38:03.230Z,5.28
2023-03-25T09:40:38.480Z,3.88
2023-03-25T09:43:26.892Z,2.75
2023-03-25T09:46:01.108Z,7.13
2023-03-25T09:48:38.961Z,7.53
2023-03-25T09:51:16.276Z,8.38
2023-03-25T09:53:55.754Z,5.50
2023-03-25T09:56:33.278Z,4.28
2023-03-25T09:59:10.240Z,5.18
2023-03-25T10:01:54.123Z,4.88
2023-03-25T10:05:00.992Z,3.15
2023-03-25T10:07:47.383Z,4.25
2023-03-25T10:10:28.338Z,3.40
2023-03-25T10:13:12.149Z,3.92
2023-03-25T10:15:54.459Z,4.65
2023-03-25T10:18:44.631Z,2.90
2023-03-25T10:21:25.342Z,3.30
2023-03-25T10:24:07.644Z,4.38
2023-03-25T10:26:46.541Z,4.15
2023-03-25T10:29:23.481Z,2.42
2023-03-25T10:32:01.536Z,2.05
2023-03-25T10:34:39.099Z,3.28
2023-03-25T10:37:14.122Z,2.65
2023-03-25T10:39:47.487Z,1.70
2023-03-25T10:42:28.284Z,3.25
2023-03-25T10:45:02.651Z,0.77
2023-03-25T10:47:40.191Z,0.35
2023-03-25T10:50:16.741Z,0.88
2023-03-25T10:52:52.069Z,2.15
2023-03-25T10:55:27.556Z,1.33
2023-03-25T10:58:01.855Z,0.85
2023-03-25T11:00:36.138Z,1.25
2023-03-25T11:03:17.262Z,2.60
2023-03-25T11:05:50.321Z,2.35
2023-03-25T11:08:25.342Z,0.98
2023-03-25T11:10:59.308Z,2.15
2023-03-25T11:13:32.172Z,1.95
2023-03-25T11:16:08.033Z,2.63
2023-03-25T11:18:42.150Z,1.20
2023-03-25T11:21:16.796Z,2.47
2023-03-25T11:23:51.520Z,2.03
2023-03-25T11:26:27.764Z,0.80
2023-03-25T11:29:05.454Z,1.00
2023-03-25T11:31:42.433Z,0.88
2023-03-25T11:34:20.166Z,3.38
2023-03-25T11:36:56.080Z,1.13
2023-03-25T11:39:34.909Z,5.47
2023-03-25T11:42:22.718Z,1.02
2023-03-25T11:44:59.550Z,3.65
2023-03-25T11:47:36.409Z,4.47
2023-03-25T11:50:21.505Z,2.33
2023-03-25T11:52:56.764Z,2.67
2023-03-25T11:55:32.412Z,5.78
2023-03-25T11:58:06.024Z,2.60
2023-03-25T12:00:40.787Z,1.55
2023-03-25T12:03:22.699Z,2.05
2023-03-25T12:06:01.013Z,3.00
2023-03-25T12:08:44.517Z,2.05
2023-03-25T12:11:21.888Z,3.30
2023-03-25T12:14:21.737Z,3.63
2023-03-25T12:17:03.132Z,2.58
2023-03-25T12:19:47.918Z,2.72
2023-03-25T12:22:35.901Z,1.70
2023-03-25T12:25:26.338Z,6.78
2023-03-25T12:30:55.820Z,4.28
2023-03-25T12:33:46.211Z,3.10
2023-03-25T12:36:34.860Z,2.53
2023-03-25T12:39:18.738Z,2.22
2023-03-25T12:42:03.086Z,3.05
2023-03-25T12:44:51.076Z,1.77
2023-03-25T12:47:29.308Z,3.28
2023-03-25T12:50:25.499Z,0.50
2023-03-25T12:53:16.944Z,1.00
2023-03-25T12:56:02.005Z,0.93
2023-03-25T12:59:15.440Z,0.00
2023-03-25T13:01:59.576Z,0.00
2023-03-25T13:04:49.015Z,0.00
2023-03-25T13:07:25.413Z,0.00
2023-03-25T13:10:08.151Z,0.00
2023-03-25T13:12:51.023Z,0.00
2023-03-25T13:30:15.497Z,0.10
2023-03-25T13:32:51.681Z,0.00
2023-03-25T13:35:34.863Z,0.00
2023-03-25T13:38:14.042Z,0.10
2023-03-25T13:40:53.059Z,0.00
2023-03-25T13:43:33.549Z,0.00
2023-03-25T13:48:50.760Z,0.00
2023-03-25T13:51:24.714Z,0.00
2023-03-25T13:54:04.782Z,0.00
2023-03-25T13:57:18.298Z,0.00
2023-03-25T14:00:21.804Z,0.00
2023-03-25T14:03:25.411Z,0.00
2023-03-25T14:06:21.448Z,0.00
2023-03-25T14:09:35.007Z,0.00
2023-03-25T14:12:13.002Z,0.00
2023-03-25T14:14:50.353Z,0.00
2023-03-25T14:17:24.124Z,0.00
2023-03-25T14:20:01.047Z,0.00
2023-03-25T14:22:43.773Z,0.00
2023-03-25T14:25:22.665Z,0.00
2023-03-25T14:27:55.738Z,0.00
2023-03-25T14:30:30.458Z,3.25
2023-03-25T14:33:04.154Z,3.85
2023-03-25T14:35:51.881Z,1.15
2023-03-25T14:38:53.071Z,2.08
2023-03-25T14:41:58.192Z,2.83
2023-03-25T14:44:32.952Z,3.38
2023-03-25T14:47:28.543Z,4.93
2023-03-25T14:50:28.492Z,1.80
2023-03-25T14:53:06.362Z,2.10
2023-03-25T14:55:44.993Z,4.15
2023-03-25T14:58:22.505Z,5.03
2023-03-25T15:00:58.095Z,4.78
2023-03-25T15:03:36.643Z,2.05
2023-03-25T15:06:12.402Z,3.72
2023-03-25T15:08:55.876Z,3.58
2023-03-25T15:11:34.531Z,3.13
2023-03-25T15:14:11.653Z,3.28
2023-03-25T15:17:00.838Z,4.95
2023-03-25T15:20:15.893Z,1.33
2023-03-25T15:23:23.261Z,3.17
2023-03-25T15:25:59.067Z,4.45
2023-03-25T15:28:47.161Z,5.43
2023-03-25T15:31:38.115Z,4.43
2023-03-25T15:34:25.306Z,2.05
2023-03-25T15:37:33.060Z,5.45
2023-03-25T15:40:22.509Z,4.00
2023-03-25T15:43:30.687Z,3.08
2023-03-25T15:46:42.900Z,3.40
2023-03-25T15:49:29.031Z,2.00
2023-03-25T15:52:12.011Z,4.07
2023-03-25T15:54:47.807Z,3.55
2023-03-25T15:57:24.355Z,4.38
2023-03-25T16:00:06.581Z,2.63
2023-03-25T16:02:47.153Z,5.65
2023-03-25T16:08:01.035Z,4.75
2023-03-25T16:10:36.303Z,5.40
2023-03-25T16:13:13.004Z,5.47
2023-03-25T16:15:46.596Z,2.90
2023-03-25T16:18:23.504Z,3.38
2023-03-25T16:20:58.430Z,2.13
2023-03-25T16:23:32.424Z,5.30
2023-03-25T16:26:06.727Z,3.50
2023-03-25T16:28:42.800Z,2.05
2023-03-25T16:31:34.881Z,3.35
2023-03-25T16:34:15.233Z,4.90
2023-03-25T16:36:53.144Z,2.88
2023-03-25T16:39:28.000Z,9.73
2023-03-25T16:42:03.322Z,3.78
2023-03-25T16:44:36.474Z,4.00
2023-03-25T16:47:13.351Z,2.33
2023-03-25T16:49:50.555Z,3.30
2023-03-25T16:52:27.304Z,3.20
2023-03-25T16:55:27.652Z,5.32
2023-03-25T16:58:03.146Z,4.88
2023-03-25T17:00:43.232Z,3.30
2023-03-25T17:03:19.997Z,5.88
2023-03-25T17:06:04.761Z,4.80
2023-03-25T17:08:37.735Z,4.72
2023-03-25T17:11:11.081Z,4.32
2023-03-25T17:13:48.602Z,4.75
2023-03-25T17:16:22.733Z,3.88
2023-03-25T17:18:56.875Z,4.82
2023-03-25T17:21:32.923Z,2.95
2023-03-25T17:24:22.290Z,2.67
2023-03-25T17:26:57.204Z,5.30
2023-03-25T17:29:30.028Z,8.05
2023-03-25T17:32:02.808Z,2.25
2023-03-25T17:34:42.835Z,5.18
2023-03-25T17:37:17.527Z,3.90
2023-03-25T17:39:51.489Z,3.38
2023-03-25T17:42:27.232Z,5.90
2023-03-25T17:45:00.434Z,4.72
2023-03-25T17:47:33.783Z,3.67
2023-03-25T17:50:15.854Z,4.15
2023-03-25T17:52:50.664Z,1.95
2023-03-25T17:55:23.856Z,3.75
2023-03-25T17:57:57.921Z,3.95
2023-03-25T18:00:33.175Z,4.43
2023-03-25T18:03:11.604Z,4.75
2023-03-25T18:05:45.695Z,5.45
2023-03-25T18:08:22.164Z,5.10
2023-03-25T18:10:56.684Z,7.20
2023-03-25T18:13:29.686Z,5.28
2023-03-25T18:16:02.487Z,3.67
2023-03-25T18:18:35.428Z,3.25
2023-03-25T18:21:12.666Z,1.60
2023-03-25T18:23:47.997Z,6.15
2023-03-25T18:26:20.955Z,3.70
2023-03-25T18:28:53.964Z,6.20
2023-03-25T18:31:26.769Z,5.18
2023-03-25T18:33:59.652Z,2.40
2023-03-25T18:36:32.939Z,4.97
2023-03-25T18:39:08.360Z,3.22
2023-03-25T18:41:41.401Z,3.80
2023-03-25T18:44:15.040Z,4.75
2023-03-25T18:46:47.899Z,3.38
2023-03-25T18:49:21.115Z,3.08
2023-03-25T18:51:53.979Z,6.72
2023-03-25T18:54:28.111Z,3.75
2023-03-25T18:57:00.905Z,2.50
2023-03-25T18:59:34.019Z,3.63
2023-03-25T19:02:07.514Z,4.28
2023-03-25T19:04:50.495Z,5.38
2023-03-25T19:07:33.042Z,6.07
2023-03-25T19:10:09.345Z,4.03
2023-03-25T19:12:44.583Z,1.38
2023-03-25T19:15:19.235Z,3.42
2023-03-25T19:17:52.587Z,2.45
2023-03-25T19:20:27.432Z,4.80
2023-03-25T19:23:00.588Z,1.20
2023-03-25T19:25:35.188Z,2.92
2023-03-25T19:28:08.408Z,0.52
2023-03-25T19:30:44.025Z,0.98
2023-03-25T19:33:18.104Z,0.82
2023-03-25T19:35:51.676Z,1.52
2023-03-25T19:38:27.374Z,1.75
2023-03-25T19:41:08.295Z,0.55
2023-03-25T19:43:41.887Z,1.00
2023-03-25T19:46:14.971Z,0.28
2023-03-25T19:48:47.869Z,0.50
2023-03-25T19:51:20.651Z,1.30
2023-03-25T19:53:54.785Z,0.70
2023-03-25T19:56:29.300Z,0.38
2023-03-25T19:59:02.615Z,0.50
2023-03-25T20:01:36.399Z,0.60
2023-03-25T20:04:09.255Z,3.45
2023-03-25T20:06:42.299Z,1.58
2023-03-25T20:09:15.133Z,0.85
2023-03-25T20:11:49.419Z,0.65
2023-03-25T20:14:22.174Z,0.20
2023-03-25T20:16:55.096Z,0.38
2023-03-25T20:19:27.981Z,1.25
2023-03-25T20:22:00.901Z,2.05
2023-03-25T20:24:33.794Z,2.05
2023-03-25T20:27:08.183Z,1.77
2023-03-25T20:29:41.248Z,0.80
2023-03-25T20:32:14.312Z,0.98
2023-03-25T20:34:48.023Z,1.00
2023-03-25T20:37:21.188Z,3.38
2023-03-25T20:39:54.328Z,3.03
2023-03-25T20:42:28.592Z,1.70
2023-03-25T20:45:01.346Z,2.85
2023-03-25T20:47:34.801Z,2.08
2023-03-25T20:50:09.460Z,2.17
2023-03-25T20:52:42.595Z,2.25
2023-03-25T20:55:15.580Z,1.20
2023-03-25T20:57:50.020Z,2.20
2023-03-25T21:00:23.168Z,2.55
2023-03-25T21:02:57.688Z,2.13
2023-03-25T21:05:30.633Z,5.32
2023-03-25T21:08:03.529Z,1.90
2023-03-25T21:10:36.563Z,2.45
2023-03-25T21:13:11.068Z,3.80
2023-03-25T21:15:43.920Z,5.18
2023-03-25T21:18:16.656Z,3.00
2023-03-25T21:20:49.827Z,2.28
2023-03-25T21:23:28.272Z,3.33
2023-03-25T21:26:04.399Z,3.97
2023-03-25T21:28:39.850Z,3.65
2023-03-25T21:31:17.075Z,1.38
2023-03-25T21:33:51.618Z,2.60
2023-03-25T21:36:27.319Z,2.85
2023-03-25T21:39:01.848Z,4.07
2023-03-25T21:41:35.072Z,1.80
2023-03-25T21:44:09.400Z,4.57
2023-03-25T21:46:42.249Z,1.85
2023-03-25T21:49:15.760Z,3.72
2023-03-25T21:51:56.498Z,2.60
2023-03-25T21:54:30.849Z,1.75
2023-03-25T21:57:04.768Z,5.75
2023-03-25T21:59:39.021Z,1.77
2023-03-25T22:02:14.516Z,2.70
2023-03-25T22:04:47.369Z,5.78
2023-03-25T22:07:20.384Z,0.85
2023-03-25T22:09:53.238Z,5.57
2023-03-25T22:12:26.317Z,4.00
2023-03-25T22:15:00.698Z,3.70
2023-03-25T22:17:33.602Z,2.00
2023-03-25T22:20:07.698Z,2.83
2023-03-25T22:22:40.462Z,2.20
2023-03-25T22:25:13.257Z,2.80
2023-03-25T22:27:46.132Z,1.92
2023-03-25T22:30:20.684Z,2.67
2023-03-25T22:32:53.484Z,8.05
2023-03-25T22:35:29.140Z,3.08
2023-03-25T22:38:01.916Z,3.58
2023-03-25T22:40:35.628Z,3.42
2023-03-25T22:43:11.025Z,4.65
2023-03-25T22:45:45.401Z,3.05
2023-03-25T22:48:18.389Z,4.30
2023-03-25T22:50:51.355Z,3.55
2023-03-25T22:53:24.843Z,3.08
2023-03-25T22:55:58.120Z,2.97
2023-03-25T22:58:32.221Z,2.88
2023-03-25T23:01:17.561Z,3.75
2023-03-25T23:03:50.776Z,2.47
2023-03-25T23:06:24.318Z,3.80
2023-03-25T23:08:59.171Z,7.43
2023-03-25T23:11:32.355Z,3.35
2023-03-25T23:14:08.670Z,3.83
2023-03-25T23:16:43.318Z,3.28
2023-03-25T23:19:16.464Z,5.95
2023-03-25T23:21:49.276Z,5.00
2023-03-25T23:24:22.087Z,1.63
2023-03-25T23:26:55.275Z,6.32
2023-03-25T23:29:28.137Z,5.53
2023-03-25T23:32:02.815Z,3.25
2023-03-25T23:34:36.047Z,7.30
2023-03-25T23:37:10.242Z,6.78
2023-03-25T23:39:46.419Z,5.30
2023-03-25T23:42:19.346Z,2.95
2023-03-25T23:44:52.967Z,2.15
2023-03-25T23:47:28.392Z,5.25
2023-03-25T23:50:02.212Z,4.55
2023-03-25T23:52:35.081Z,2.83
2023-03-25T23:55:12.319Z,4.10
2023-03-25T23:57:45.131Z,4.53
